Crowley, Louisiana
Current Conditions -  °F | °C
As of 5:15 PM on Friday 19 Dec 2014 (Local Time) from K3R7 Reporting Station
Light Rain Light Rain  
Wind Chill: 53°   Ceiling: 500
Heat Index: 53°   Visibility: 10mi
Dew Point: 52°   Wind: 13mph
Humidity: 97%   Direction: 30°NNE
Pressure: 30.05"   Gusts: NA
Location:  30.21°N, 92.37°W
Report Text: K3R7 192315Z AUTO 03011KT 10SM -RA OVC005 12/11 A3005 RMK AO2 P0002 T01170113
Loading
Personal Weather Stations






























Interactive Weather Map New forecast layout! Learn more

10-Day Weather Forecast

Advertisements
Track Severe Weather on mobile